sensor_id;sensor_type;location;lat;lon;timestamp;P1;durP1;ratioP1;P2;durP2;ratioP2
10283;SDS011;5187;52.378;9.018;2022-08-02T00:01:20;7.33;;;4.10;;
10283;SDS011;5187;52.378;9.018;2022-08-02T00:03:49;7.07;;;4.10;;
10283;SDS011;5187;52.378;9.018;2022-08-02T00:06:17;7.13;;;4.23;;
10283;SDS011;5187;52.378;9.018;2022-08-02T00:08:46;6.53;;;4.10;;
10283;SDS011;5187;52.378;9.018;2022-08-02T00:11:15;7.57;;;4.40;;
10283;SDS011;5187;52.378;9.018;2022-08-02T00:13:44;6.70;;;4.07;;
10283;SDS011;5187;52.378;9.018;2022-08-02T00:16:14;5.93;;;3.80;;
10283;SDS011;5187;52.378;9.018;2022-08-02T00:18:43;5.27;;;4.17;;
10283;SDS011;5187;52.378;9.018;2022-08-02T00:21:12;6.13;;;4.30;;
10283;SDS011;5187;52.378;9.018;2022-08-02T00:23:41;9.10;;;4.17;;
10283;SDS011;5187;52.378;9.018;2022-08-02T00:26:30;5.60;;;4.20;;
10283;SDS011;5187;52.378;9.018;2022-08-02T00:28:58;9.47;;;4.60;;
10283;SDS011;5187;52.378;9.018;2022-08-02T00:31:27;8.50;;;4.20;;
10283;SDS011;5187;52.378;9.018;2022-08-02T00:33:56;9.90;;;4.57;;
10283;SDS011;5187;52.378;9.018;2022-08-02T00:36:45;7.80;;;4.53;;
10283;SDS011;5187;52.378;9.018;2022-08-02T00:39:13;7.93;;;4.70;;
10283;SDS011;5187;52.378;9.018;2022-08-02T00:42:01;7.37;;;4.57;;
10283;SDS011;5187;52.378;9.018;2022-08-02T00:44:29;6.27;;;4.63;;
10283;SDS011;5187;52.378;9.018;2022-08-02T00:46:58;6.93;;;4.20;;
10283;SDS011;5187;52.378;9.018;2022-08-02T00:49:28;10.07;;;4.50;;
10283;SDS011;5187;52.378;9.018;2022-08-02T00:51:58;8.27;;;4.73;;
10283;SDS011;5187;52.378;9.018;2022-08-02T00:54:29;7.80;;;4.87;;
10283;SDS011;5187;52.378;9.018;2022-08-02T00:56:58;9.80;;;4.83;;
10283;SDS011;5187;52.378;9.018;2022-08-02T00:59:27;6.60;;;4.10;;
10283;SDS011;5187;52.378;9.018;2022-08-02T01:01:55;7.83;;;4.50;;
10283;SDS011;5187;52.378;9.018;2022-08-02T01:04:24;10.60;;;5.50;;
10283;SDS011;5187;52.378;9.018;2022-08-02T01:06:58;7.07;;;4.63;;
10283;SDS011;5187;52.378;9.018;2022-08-02T01:09:39;4.93;;;4.20;;
10283;SDS011;5187;52.378;9.018;2022-08-02T01:12:08;7.80;;;4.67;;
10283;SDS011;5187;52.378;9.018;2022-08-02T01:14:37;7.17;;;5.00;;
10283;SDS011;5187;52.378;9.018;2022-08-02T01:17:08;8.27;;;5.10;;
10283;SDS011;5187;52.378;9.018;2022-08-02T01:19:39;10.87;;;4.97;;
10283;SDS011;5187;52.378;9.018;2022-08-02T01:22:21;7.10;;;4.63;;
10283;SDS011;5187;52.378;9.018;2022-08-02T01:25:20;6.23;;;4.57;;
10283;SDS011;5187;52.378;9.018;2022-08-02T01:28:17;6.87;;;4.53;;
10283;SDS011;5187;52.378;9.018;2022-08-02T01:30:52;8.73;;;4.20;;
10283;SDS011;5187;52.378;9.018;2022-08-02T01:33:23;8.37;;;4.97;;
10283;SDS011;5187;52.378;9.018;2022-08-02T01:35:53;8.00;;;4.47;;
10283;SDS011;5187;52.378;9.018;2022-08-02T01:38:25;6.90;;;4.40;;
10283;SDS011;5187;52.378;9.018;2022-08-02T01:40:55;8.03;;;4.63;;
10283;SDS011;5187;52.378;9.018;2022-08-02T01:43:27;5.90;;;4.30;;
10283;SDS011;5187;52.378;9.018;2022-08-02T01:45:57;5.83;;;4.33;;
10283;SDS011;5187;52.378;9.018;2022-08-02T01:48:27;6.70;;;4.40;;
10283;SDS011;5187;52.378;9.018;2022-08-02T01:50:56;7.07;;;4.27;;
10283;SDS011;5187;52.378;9.018;2022-08-02T01:53:26;6.73;;;4.70;;
10283;SDS011;5187;52.378;9.018;2022-08-02T01:55:57;6.90;;;4.30;;
10283;SDS011;5187;52.378;9.018;2022-08-02T01:58:28;6.63;;;4.33;;
10283;SDS011;5187;52.378;9.018;2022-08-02T02:00:58;5.00;;;4.20;;
10283;SDS011;5187;52.378;9.018;2022-08-02T02:03:28;6.07;;;4.10;;
10283;SDS011;5187;52.378;9.018;2022-08-02T02:05:59;7.00;;;4.77;;
10283;SDS011;5187;52.378;9.018;2022-08-02T02:08:30;6.93;;;5.10;;
10283;SDS011;5187;52.378;9.018;2022-08-02T02:10:59;7.57;;;5.47;;
10283;SDS011;5187;52.378;9.018;2022-08-02T02:13:50;9.53;;;5.17;;
10283;SDS011;5187;52.378;9.018;2022-08-02T02:16:19;6.97;;;5.20;;
10283;SDS011;5187;52.378;9.018;2022-08-02T02:18:49;6.00;;;5.03;;
10283;SDS011;5187;52.378;9.018;2022-08-02T02:21:18;8.23;;;5.03;;
10283;SDS011;5187;52.378;9.018;2022-08-02T02:23:47;6.63;;;5.10;;
10283;SDS011;5187;52.378;9.018;2022-08-02T02:26:16;7.00;;;5.13;;
10283;SDS011;5187;52.378;9.018;2022-08-02T02:28:59;10.77;;;5.20;;
10283;SDS011;5187;52.378;9.018;2022-08-02T02:31:28;7.57;;;5.10;;
10283;SDS011;5187;52.378;9.018;2022-08-02T02:34:00;7.00;;;4.90;;
10283;SDS011;5187;52.378;9.018;2022-08-02T02:36:29;9.17;;;4.90;;
10283;SDS011;5187;52.378;9.018;2022-08-02T02:39:00;6.73;;;4.40;;
10283;SDS011;5187;52.378;9.018;2022-08-02T02:41:38;6.07;;;4.50;;
10283;SDS011;5187;52.378;9.018;2022-08-02T02:44:09;7.97;;;4.80;;
10283;SDS011;5187;52.378;9.018;2022-08-02T02:46:38;7.87;;;5.10;;
10283;SDS011;5187;52.378;9.018;2022-08-02T02:49:07;5.83;;;4.70;;
10283;SDS011;5187;52.378;9.018;2022-08-02T02:51:38;7.47;;;5.30;;
10283;SDS011;5187;52.378;9.018;2022-08-02T02:54:07;5.13;;;4.20;;
10283;SDS011;5187;52.378;9.018;2022-08-02T02:56:56;5.30;;;4.40;;
10283;SDS011;5187;52.378;9.018;2022-08-02T02:59:26;7.63;;;4.63;;
10283;SDS011;5187;52.378;9.018;2022-08-02T03:01:55;9.93;;;4.80;;
10283;SDS011;5187;52.378;9.018;2022-08-02T03:04:24;5.10;;;4.60;;
10283;SDS011;5187;52.378;9.018;2022-08-02T03:07:14;6.80;;;4.90;;
10283;SDS011;5187;52.378;9.018;2022-08-02T03:09:42;6.07;;;5.10;;
10283;SDS011;5187;52.378;9.018;2022-08-02T03:12:19;6.37;;;4.47;;
10283;SDS011;5187;52.378;9.018;2022-08-02T03:14:57;6.70;;;5.00;;
10283;SDS011;5187;52.378;9.018;2022-08-02T03:17:35;9.53;;;5.10;;
10283;SDS011;5187;52.378;9.018;2022-08-02T03:20:06;5.77;;;4.97;;
10283;SDS011;5187;52.378;9.018;2022-08-02T03:22:35;8.17;;;5.60;;
10283;SDS011;5187;52.378;9.018;2022-08-02T03:25:03;9.60;;;5.33;;
10283;SDS011;5187;52.378;9.018;2022-08-02T03:27:32;5.60;;;4.93;;
10283;SDS011;5187;52.378;9.018;2022-08-02T03:30:02;7.03;;;5.40;;
10283;SDS011;5187;52.378;9.018;2022-08-02T03:32:32;15.03;;;5.87;;
10283;SDS011;5187;52.378;9.018;2022-08-02T03:35:00;8.13;;;5.10;;
10283;SDS011;5187;52.378;9.018;2022-08-02T03:37:29;5.87;;;5.00;;
10283;SDS011;5187;52.378;9.018;2022-08-02T03:39:59;8.27;;;5.90;;
10283;SDS011;5187;52.378;9.018;2022-08-02T03:42:28;6.37;;;5.10;;
10283;SDS011;5187;52.378;9.018;2022-08-02T03:44:57;6.57;;;4.90;;
10283;SDS011;5187;52.378;9.018;2022-08-02T03:47:34;7.17;;;5.43;;
10283;SDS011;5187;52.378;9.018;2022-08-02T03:50:03;6.27;;;5.50;;
10283;SDS011;5187;52.378;9.018;2022-08-02T03:52:32;8.10;;;5.40;;
10283;SDS011;5187;52.378;9.018;2022-08-02T03:55:01;9.03;;;5.40;;
10283;SDS011;5187;52.378;9.018;2022-08-02T03:57:30;9.03;;;5.63;;
10283;SDS011;5187;52.378;9.018;2022-08-02T03:59:58;6.73;;;5.10;;
10283;SDS011;5187;52.378;9.018;2022-08-02T04:02:27;5.63;;;4.60;;
10283;SDS011;5187;52.378;9.018;2022-08-02T04:04:56;6.87;;;4.70;;
10283;SDS011;5187;52.378;9.018;2022-08-02T04:07:25;7.83;;;5.50;;
10283;SDS011;5187;52.378;9.018;2022-08-02T04:10:14;8.40;;;5.80;;
10283;SDS011;5187;52.378;9.018;2022-08-02T04:12:42;6.80;;;5.33;;
10283;SDS011;5187;52.378;9.018;2022-08-02T04:15:11;7.37;;;5.63;;
10283;SDS011;5187;52.378;9.018;2022-08-02T04:17:40;9.70;;;5.60;;
10283;SDS011;5187;52.378;9.018;2022-08-02T04:20:16;7.70;;;5.80;;
10283;SDS011;5187;52.378;9.018;2022-08-02T04:22:46;9.33;;;6.50;;
10283;SDS011;5187;52.378;9.018;2022-08-02T04:25:16;8.63;;;5.60;;
10283;SDS011;5187;52.378;9.018;2022-08-02T04:28:00;7.80;;;5.83;;
10283;SDS011;5187;52.378;9.018;2022-08-02T04:30:43;5.87;;;5.27;;
10283;SDS011;5187;52.378;9.018;2022-08-02T04:33:12;8.10;;;5.07;;
10283;SDS011;5187;52.378;9.018;2022-08-02T04:35:42;7.20;;;5.73;;
10283;SDS011;5187;52.378;9.018;2022-08-02T04:38:11;7.20;;;5.47;;
10283;SDS011;5187;52.378;9.018;2022-08-02T04:40:48;8.73;;;5.60;;
10283;SDS011;5187;52.378;9.018;2022-08-02T04:43:16;8.77;;;5.83;;
10283;SDS011;5187;52.378;9.018;2022-08-02T04:45:45;8.43;;;6.07;;
10283;SDS011;5187;52.378;9.018;2022-08-02T04:48:14;12.33;;;5.63;;
10283;SDS011;5187;52.378;9.018;2022-08-02T04:50:44;5.87;;;5.30;;
10283;SDS011;5187;52.378;9.018;2022-08-02T04:53:13;8.73;;;5.90;;
10283;SDS011;5187;52.378;9.018;2022-08-02T04:55:41;10.77;;;6.40;;
10283;SDS011;5187;52.378;9.018;2022-08-02T04:58:10;8.93;;;6.50;;
10283;SDS011;5187;52.378;9.018;2022-08-02T05:00:58;9.43;;;6.40;;
10283;SDS011;5187;52.378;9.018;2022-08-02T05:03:27;12.03;;;6.53;;
10283;SDS011;5187;52.378;9.018;2022-08-02T05:05:57;8.13;;;6.70;;
10283;SDS011;5187;52.378;9.018;2022-08-02T05:08:26;9.17;;;6.67;;
10283;SDS011;5187;52.378;9.018;2022-08-02T05:10:55;9.37;;;6.20;;
10283;SDS011;5187;52.378;9.018;2022-08-02T05:13:23;7.93;;;6.43;;
10283;SDS011;5187;52.378;9.018;2022-08-02T05:15:52;10.40;;;6.60;;
10283;SDS011;5187;52.378;9.018;2022-08-02T05:18:20;10.30;;;6.07;;
10283;SDS011;5187;52.378;9.018;2022-08-02T05:20:49;11.80;;;6.60;;
10283;SDS011;5187;52.378;9.018;2022-08-02T05:23:24;9.77;;;6.83;;
10283;SDS011;5187;52.378;9.018;2022-08-02T05:25:53;11.03;;;7.27;;
10283;SDS011;5187;52.378;9.018;2022-08-02T05:28:22;12.27;;;7.10;;
10283;SDS011;5187;52.378;9.018;2022-08-02T05:30:50;9.77;;;6.73;;
10283;SDS011;5187;52.378;9.018;2022-08-02T05:33:19;10.03;;;7.30;;
10283;SDS011;5187;52.378;9.018;2022-08-02T05:35:47;10.97;;;7.70;;
10283;SDS011;5187;52.378;9.018;2022-08-02T05:38:15;9.03;;;7.17;;
10283;SDS011;5187;52.378;9.018;2022-08-02T05:40:52;10.90;;;7.60;;
10283;SDS011;5187;52.378;9.018;2022-08-02T05:43:21;9.73;;;7.30;;
10283;SDS011;5187;52.378;9.018;2022-08-02T05:45:49;10.77;;;6.80;;
10283;SDS011;5187;52.378;9.018;2022-08-02T05:48:20;10.43;;;7.10;;
10283;SDS011;5187;52.378;9.018;2022-08-02T05:50:58;9.93;;;6.47;;
10283;SDS011;5187;52.378;9.018;2022-08-02T05:53:33;9.30;;;6.10;;
10283;SDS011;5187;52.378;9.018;2022-08-02T05:56:06;8.87;;;5.80;;
10283;SDS011;5187;52.378;9.018;2022-08-02T05:58:39;10.83;;;6.20;;
10283;SDS011;5187;52.378;9.018;2022-08-02T06:01:09;10.43;;;5.80;;
10283;SDS011;5187;52.378;9.018;2022-08-02T06:03:42;10.60;;;6.20;;
10283;SDS011;5187;52.378;9.018;2022-08-02T06:06:15;10.67;;;5.83;;
10283;SDS011;5187;52.378;9.018;2022-08-02T06:08:46;10.03;;;5.80;;
10283;SDS011;5187;52.378;9.018;2022-08-02T06:11:17;9.47;;;5.80;;
10283;SDS011;5187;52.378;9.018;2022-08-02T06:13:48;9.53;;;5.50;;
10283;SDS011;5187;52.378;9.018;2022-08-02T06:16:18;8.17;;;5.37;;
10283;SDS011;5187;52.378;9.018;2022-08-02T06:18:58;9.70;;;5.37;;
10283;SDS011;5187;52.378;9.018;2022-08-02T06:21:27;8.57;;;5.13;;
10283;SDS011;5187;52.378;9.018;2022-08-02T06:24:16;8.03;;;5.20;;
10283;SDS011;5187;52.378;9.018;2022-08-02T06:26:47;7.60;;;5.40;;
10283;SDS011;5187;52.378;9.018;2022-08-02T06:29:18;8.27;;;5.23;;
10283;SDS011;5187;52.378;9.018;2022-08-02T06:31:48;7.27;;;4.93;;
10283;SDS011;5187;52.378;9.018;2022-08-02T06:34:19;6.60;;;4.13;;
10283;SDS011;5187;52.378;9.018;2022-08-02T06:36:49;8.17;;;4.93;;
10283;SDS011;5187;52.378;9.018;2022-08-02T06:39:20;9.07;;;5.20;;
10283;SDS011;5187;52.378;9.018;2022-08-02T06:42:02;6.20;;;4.57;;
10283;SDS011;5187;52.378;9.018;2022-08-02T06:44:33;9.02;;;5.30;;
10283;SDS011;5187;52.378;9.018;2022-08-02T06:47:16;8.60;;;4.90;;
10283;SDS011;5187;52.378;9.018;2022-08-02T06:49:45;6.00;;;3.92;;
10283;SDS011;5187;52.378;9.018;2022-08-02T06:52:19;7.88;;;4.28;;
10283;SDS011;5187;52.378;9.018;2022-08-02T06:54:54;6.03;;;3.55;;
10283;SDS011;5187;52.378;9.018;2022-08-02T06:57:25;7.53;;;4.28;;
10283;SDS011;5187;52.378;9.018;2022-08-02T06:59:54;5.88;;;3.78;;
10283;SDS011;5187;52.378;9.018;2022-08-02T07:02:27;6.28;;;3.95;;
10283;SDS011;5187;52.378;9.018;2022-08-02T07:04:56;7.47;;;4.22;;
10283;SDS011;5187;52.378;9.018;2022-08-02T07:07:24;8.35;;;4.00;;
10283;SDS011;5187;52.378;9.018;2022-08-02T07:09:54;6.82;;;4.13;;
10283;SDS011;5187;52.378;9.018;2022-08-02T07:12:28;7.43;;;4.20;;
10283;SDS011;5187;52.378;9.018;2022-08-02T07:14:58;6.50;;;3.60;;
10283;SDS011;5187;52.378;9.018;2022-08-02T07:17:28;8.07;;;3.90;;
10283;SDS011;5187;52.378;9.018;2022-08-02T07:19:56;8.18;;;4.10;;
10283;SDS011;5187;52.378;9.018;2022-08-02T07:22:26;5.90;;;3.80;;
10283;SDS011;5187;52.378;9.018;2022-08-02T07:24:55;5.20;;;3.60;;
10283;SDS011;5187;52.378;9.018;2022-08-02T07:27:24;5.18;;;3.65;;
10283;SDS011;5187;52.378;9.018;2022-08-02T07:29:54;6.78;;;3.63;;
10283;SDS011;5187;52.378;9.018;2022-08-02T07:32:24;7.47;;;4.00;;
10283;SDS011;5187;52.378;9.018;2022-08-02T07:34:52;9.32;;;3.60;;
10283;SDS011;5187;52.378;9.018;2022-08-02T07:37:22;4.82;;;3.58;;
10283;SDS011;5187;52.378;9.018;2022-08-02T07:40:11;5.78;;;3.63;;
10283;SDS011;5187;52.378;9.018;2022-08-02T07:42:46;6.47;;;3.65;;
10283;SDS011;5187;52.378;9.018;2022-08-02T07:45:16;8.93;;;3.97;;
10283;SDS011;5187;52.378;9.018;2022-08-02T07:47:45;6.82;;;3.90;;
10283;SDS011;5187;52.378;9.018;2022-08-02T07:50:14;8.27;;;4.13;;
10283;SDS011;5187;52.378;9.018;2022-08-02T07:52:43;9.40;;;3.85;;
10283;SDS011;5187;52.378;9.018;2022-08-02T07:55:13;6.70;;;3.63;;
10283;SDS011;5187;52.378;9.018;2022-08-02T07:57:42;6.18;;;3.20;;
10283;SDS011;5187;52.378;9.018;2022-08-02T08:00:13;9.95;;;3.95;;
10283;SDS011;5187;52.378;9.018;2022-08-02T08:02:44;7.18;;;3.88;;
10283;SDS011;5187;52.378;9.018;2022-08-02T08:05:13;5.05;;;3.80;;
10283;SDS011;5187;52.378;9.018;2022-08-02T08:07:41;4.57;;;3.05;;
10283;SDS011;5187;52.378;9.018;2022-08-02T08:10:10;7.72;;;3.53;;
10283;SDS011;5187;52.378;9.018;2022-08-02T08:12:38;7.32;;;4.13;;
10283;SDS011;5187;52.378;9.018;2022-08-02T08:15:07;6.75;;;3.63;;
10283;SDS011;5187;52.378;9.018;2022-08-02T08:17:36;4.85;;;3.17;;
10283;SDS011;5187;52.378;9.018;2022-08-02T08:20:06;6.18;;;3.00;;
10283;SDS011;5187;52.378;9.018;2022-08-02T08:22:41;5.90;;;3.53;;
10283;SDS011;5187;52.378;9.018;2022-08-02T08:25:13;8.60;;;3.50;;
10283;SDS011;5187;52.378;9.018;2022-08-02T08:27:55;5.60;;;3.08;;
10283;SDS011;5187;52.378;9.018;2022-08-02T08:30:25;7.88;;;2.92;;
10283;SDS011;5187;52.378;9.018;2022-08-02T08:33:07;4.63;;;2.85;;
10283;SDS011;5187;52.378;9.018;2022-08-02T08:35:37;8.43;;;2.88;;
10283;SDS011;5187;52.378;9.018;2022-08-02T08:38:05;3.08;;;2.17;;
10283;SDS011;5187;52.378;9.018;2022-08-02T08:40:48;4.53;;;2.80;;
10283;SDS011;5187;52.378;9.018;2022-08-02T08:43:19;5.35;;;2.83;;
10283;SDS011;5187;52.378;9.018;2022-08-02T08:46:01;6.57;;;2.92;;
10283;SDS011;5187;52.378;9.018;2022-08-02T08:48:30;4.72;;;2.40;;
10283;SDS011;5187;52.378;9.018;2022-08-02T08:54:00;5.20;;;2.60;;
10283;SDS011;5187;52.378;9.018;2022-08-02T08:56:31;3.13;;;2.38;;
10283;SDS011;5187;52.378;9.018;2022-08-02T08:59:00;6.07;;;2.95;;
10283;SDS011;5187;52.378;9.018;2022-08-02T09:01:28;2.90;;;2.50;;
10283;SDS011;5187;52.378;9.018;2022-08-02T09:04:16;5.15;;;3.10;;
10283;SDS011;5187;52.378;9.018;2022-08-02T09:06:44;4.75;;;2.85;;
10283;SDS011;5187;52.378;9.018;2022-08-02T09:09:14;6.13;;;3.35;;
10283;SDS011;5187;52.378;9.018;2022-08-02T09:11:42;5.50;;;3.40;;
10283;SDS011;5187;52.378;9.018;2022-08-02T09:14:11;6.82;;;3.25;;
10283;SDS011;5187;52.378;9.018;2022-08-02T09:16:52;5.35;;;3.03;;
10283;SDS011;5187;52.378;9.018;2022-08-02T09:19:21;4.53;;;3.53;;
10283;SDS011;5187;52.378;9.018;2022-08-02T09:21:50;8.30;;;3.60;;
10283;SDS011;5187;52.378;9.018;2022-08-02T09:24:21;4.85;;;3.17;;
10283;SDS011;5187;52.378;9.018;2022-08-02T09:26:50;5.85;;;2.90;;
10283;SDS011;5187;52.378;9.018;2022-08-02T09:29:20;6.78;;;3.08;;
10283;SDS011;5187;52.378;9.018;2022-08-02T09:31:49;4.63;;;2.92;;
10283;SDS011;5187;52.378;9.018;2022-08-02T09:34:45;6.43;;;2.90;;
10283;SDS011;5187;52.378;9.018;2022-08-02T09:37:20;3.33;;;2.80;;
10283;SDS011;5187;52.378;9.018;2022-08-02T09:39:54;4.30;;;2.67;;
10283;SDS011;5187;52.378;9.018;2022-08-02T09:42:25;3.33;;;2.40;;
10283;SDS011;5187;52.378;9.018;2022-08-02T09:44:56;3.75;;;2.45;;
10283;SDS011;5187;52.378;9.018;2022-08-02T09:47:26;4.15;;;2.50;;
10283;SDS011;5187;52.378;9.018;2022-08-02T09:49:56;5.53;;;2.72;;
10283;SDS011;5187;52.378;9.018;2022-08-02T09:52:25;4.32;;;2.70;;
10283;SDS011;5187;52.378;9.018;2022-08-02T09:55:04;3.90;;;2.13;;
10283;SDS011;5187;52.378;9.018;2022-08-02T09:57:33;4.25;;;2.03;;
10283;SDS011;5187;52.378;9.018;2022-08-02T10:00:05;5.00;;;2.08;;
10283;SDS011;5187;52.378;9.018;2022-08-02T10:05:29;4.47;;;2.20;;
10283;SDS011;5187;52.378;9.018;2022-08-02T10:08:11;4.18;;;2.70;;
10283;SDS011;5187;52.378;9.018;2022-08-02T10:10:55;4.40;;;2.40;;
10283;SDS011;5187;52.378;9.018;2022-08-02T10:13:27;4.20;;;2.13;;
10283;SDS011;5187;52.378;9.018;2022-08-02T10:15:56;3.97;;;2.33;;
10283;SDS011;5187;52.378;9.018;2022-08-02T10:18:25;3.88;;;2.42;;
10283;SDS011;5187;52.378;9.018;2022-08-02T10:21:06;4.50;;;2.15;;
10283;SDS011;5187;52.378;9.018;2022-08-02T10:23:35;5.13;;;2.50;;
10283;SDS011;5187;52.378;9.018;2022-08-02T10:26:08;5.13;;;2.40;;
10283;SDS011;5187;52.378;9.018;2022-08-02T10:28:40;6.80;;;2.72;;
10283;SDS011;5187;52.378;9.018;2022-08-02T10:31:09;3.30;;;2.38;;
10283;SDS011;5187;52.378;9.018;2022-08-02T10:33:41;5.07;;;2.28;;
10283;SDS011;5187;52.378;9.018;2022-08-02T10:36:15;4.53;;;2.25;;
10283;SDS011;5187;52.378;9.018;2022-08-02T10:38:45;3.60;;;2.15;;
10283;SDS011;5187;52.378;9.018;2022-08-02T10:44:06;4.55;;;1.90;;
10283;SDS011;5187;52.378;9.018;2022-08-02T10:46:50;3.83;;;1.85;;
10283;SDS011;5187;52.378;9.018;2022-08-02T10:49:19;2.75;;;1.70;;
10283;SDS011;5187;52.378;9.018;2022-08-02T10:52:06;3.80;;;1.70;;
10283;SDS011;5187;52.378;9.018;2022-08-02T10:54:36;2.28;;;1.63;;
10283;SDS011;5187;52.378;9.018;2022-08-02T10:57:15;2.38;;;1.50;;
10283;SDS011;5187;52.378;9.018;2022-08-02T10:59:45;2.58;;;1.60;;
10283;SDS011;5187;52.378;9.018;2022-08-02T11:05:12;1.90;;;1.50;;
10283;SDS011;5187;52.378;9.018;2022-08-02T11:07:42;2.60;;;1.65;;
10283;SDS011;5187;52.378;9.018;2022-08-02T11:10:28;3.00;;;1.75;;
10283;SDS011;5187;52.378;9.018;2022-08-02T11:12:59;3.28;;;1.83;;
10283;SDS011;5187;52.378;9.018;2022-08-02T11:15:45;3.35;;;1.70;;
10283;SDS011;5187;52.378;9.018;2022-08-02T11:18:14;2.92;;;1.95;;
10283;SDS011;5187;52.378;9.018;2022-08-02T11:20:44;3.88;;;1.73;;
10283;SDS011;5187;52.378;9.018;2022-08-02T11:23:33;4.13;;;1.90;;
10283;SDS011;5187;52.378;9.018;2022-08-02T11:29:08;4.00;;;2.28;;
10283;SDS011;5187;52.378;9.018;2022-08-02T11:34:35;5.63;;;2.30;;
10283;SDS011;5187;52.378;9.018;2022-08-02T11:37:26;4.30;;;2.10;;
10283;SDS011;5187;52.378;9.018;2022-08-02T11:43:14;3.42;;;2.08;;
10283;SDS011;5187;52.378;9.018;2022-08-02T11:45:43;4.40;;;2.20;;
10283;SDS011;5187;52.378;9.018;2022-08-02T11:48:29;6.55;;;2.28;;
10283;SDS011;5187;52.378;9.018;2022-08-02T11:51:03;4.10;;;2.40;;
10283;SDS011;5187;52.378;9.018;2022-08-02T11:53:33;2.25;;;2.05;;
10283;SDS011;5187;52.378;9.018;2022-08-02T11:56:02;2.75;;;2.17;;
10283;SDS011;5187;52.378;9.018;2022-08-02T11:58:31;3.50;;;2.42;;
10283;SDS011;5187;52.378;9.018;2022-08-02T12:01:00;2.58;;;2.20;;
10283;SDS011;5187;52.378;9.018;2022-08-02T12:03:33;3.25;;;2.72;;
10283;SDS011;5187;52.378;9.018;2022-08-02T12:06:04;3.60;;;2.70;;
10283;SDS011;5187;52.378;9.018;2022-08-02T12:08:42;2.35;;;2.15;;
10283;SDS011;5187;52.378;9.018;2022-08-02T12:11:20;2.92;;;2.22;;
10283;SDS011;5187;52.378;9.018;2022-08-02T12:14:03;3.35;;;2.60;;
10283;SDS011;5187;52.378;9.018;2022-08-02T12:16:33;2.70;;;2.50;;
10283;SDS011;5187;52.378;9.018;2022-08-02T12:19:20;2.83;;;2.30;;
10283;SDS011;5187;52.378;9.018;2022-08-02T12:24:37;3.83;;;2.40;;
10283;SDS011;5187;52.378;9.018;2022-08-02T12:27:06;3.60;;;2.60;;
10283;SDS011;5187;52.378;9.018;2022-08-02T12:29:35;4.43;;;2.60;;
10283;SDS011;5187;52.378;9.018;2022-08-02T12:32:24;3.15;;;2.20;;
10283;SDS011;5187;52.378;9.018;2022-08-02T12:35:00;6.28;;;2.53;;
10283;SDS011;5187;52.378;9.018;2022-08-02T12:37:29;2.55;;;2.35;;
10283;SDS011;5187;52.378;9.018;2022-08-02T12:40:02;3.08;;;2.60;;
10283;SDS011;5187;52.378;9.018;2022-08-02T12:42:51;3.95;;;2.55;;
10283;SDS011;5187;52.378;9.018;2022-08-02T12:45:20;2.33;;;2.00;;
10283;SDS011;5187;52.378;9.018;2022-08-02T12:47:52;3.38;;;2.13;;
10283;SDS011;5187;52.378;9.018;2022-08-02T12:50:25;2.83;;;2.45;;
10283;SDS011;5187;52.378;9.018;2022-08-02T12:53:04;4.80;;;2.50;;
10283;SDS011;5187;52.378;9.018;2022-08-02T12:55:35;2.75;;;2.20;;
10283;SDS011;5187;52.378;9.018;2022-08-02T12:58:26;3.00;;;2.67;;
10283;SDS011;5187;52.378;9.018;2022-08-02T13:00:56;2.63;;;2.30;;
10283;SDS011;5187;52.378;9.018;2022-08-02T13:03:25;3.40;;;2.60;;
10283;SDS011;5187;52.378;9.018;2022-08-02T13:06:14;2.80;;;2.28;;
10283;SDS011;5187;52.378;9.018;2022-08-02T13:09:10;2.17;;;1.90;;
10283;SDS011;5187;52.378;9.018;2022-08-02T13:11:44;3.20;;;2.22;;
10283;SDS011;5187;52.378;9.018;2022-08-02T13:14:12;3.03;;;1.90;;
10283;SDS011;5187;52.378;9.018;2022-08-02T13:16:42;2.88;;;1.98;;
10283;SDS011;5187;52.378;9.018;2022-08-02T13:19:10;2.03;;;1.83;;
10283;SDS011;5187;52.378;9.018;2022-08-02T13:21:41;2.20;;;2.00;;
10283;SDS011;5187;52.378;9.018;2022-08-02T13:24:28;2.13;;;1.92;;
10283;SDS011;5187;52.378;9.018;2022-08-02T13:27:05;2.80;;;2.10;;
10283;SDS011;5187;52.378;9.018;2022-08-02T13:29:48;3.78;;;2.10;;
10283;SDS011;5187;52.378;9.018;2022-08-02T13:32:31;2.63;;;2.00;;
10283;SDS011;5187;52.378;9.018;2022-08-02T13:35:00;4.00;;;1.90;;
10283;SDS011;5187;52.378;9.018;2022-08-02T13:37:30;3.03;;;1.80;;
10283;SDS011;5187;52.378;9.018;2022-08-02T13:40:06;3.80;;;2.00;;
10283;SDS011;5187;52.378;9.018;2022-08-02T13:42:49;2.05;;;1.85;;
10283;SDS011;5187;52.378;9.018;2022-08-02T13:45:17;2.20;;;2.00;;
10283;SDS011;5187;52.378;9.018;2022-08-02T13:47:46;2.15;;;1.95;;
10283;SDS011;5187;52.378;9.018;2022-08-02T13:50:31;1.67;;;1.58;;
10283;SDS011;5187;52.378;9.018;2022-08-02T13:53:00;2.55;;;1.98;;
10283;SDS011;5187;52.378;9.018;2022-08-02T13:55:28;2.75;;;1.88;;
10283;SDS011;5187;52.378;9.018;2022-08-02T13:57:58;1.80;;;1.70;;
10283;SDS011;5187;52.378;9.018;2022-08-02T14:00:40;4.60;;;2.45;;
10283;SDS011;5187;52.378;9.018;2022-08-02T14:03:09;2.35;;;1.90;;
10283;SDS011;5187;52.378;9.018;2022-08-02T14:05:40;2.10;;;1.90;;
10283;SDS011;5187;52.378;9.018;2022-08-02T14:08:14;3.13;;;2.20;;
10283;SDS011;5187;52.378;9.018;2022-08-02T14:13:29;2.60;;;2.10;;
10283;SDS011;5187;52.378;9.018;2022-08-02T14:16:01;3.85;;;2.30;;
10283;SDS011;5187;52.378;9.018;2022-08-02T14:18:30;2.17;;;1.90;;
10283;SDS011;5187;52.378;9.018;2022-08-02T14:21:02;1.83;;;1.73;;
10283;SDS011;5187;52.378;9.018;2022-08-02T14:26:16;2.72;;;2.42;;
10283;SDS011;5187;52.378;9.018;2022-08-02T14:28:54;2.22;;;2.03;;
10283;SDS011;5187;52.378;9.018;2022-08-02T14:31:26;2.10;;;1.90;;
10283;SDS011;5187;52.378;9.018;2022-08-02T14:33:55;2.33;;;2.10;;
10283;SDS011;5187;52.378;9.018;2022-08-02T14:36:24;3.83;;;2.17;;
10283;SDS011;5187;52.378;9.018;2022-08-02T14:38:53;3.30;;;2.22;;
10283;SDS011;5187;52.378;9.018;2022-08-02T14:41:22;2.40;;;2.20;;
10283;SDS011;5187;52.378;9.018;2022-08-02T14:43:50;2.63;;;2.42;;
10283;SDS011;5187;52.378;9.018;2022-08-02T14:46:33;3.72;;;2.53;;
10283;SDS011;5187;52.378;9.018;2022-08-02T14:49:02;2.47;;;2.20;;
10283;SDS011;5187;52.378;9.018;2022-08-02T14:51:33;5.05;;;2.47;;
10283;SDS011;5187;52.378;9.018;2022-08-02T14:54:02;4.00;;;2.53;;
10283;SDS011;5187;52.378;9.018;2022-08-02T14:56:33;3.05;;;2.40;;
10283;SDS011;5187;52.378;9.018;2022-08-02T14:59:02;4.65;;;2.45;;
10283;SDS011;5187;52.378;9.018;2022-08-02T15:01:32;3.00;;;2.10;;
10283;SDS011;5187;52.378;9.018;2022-08-02T15:04:01;4.13;;;2.42;;
10283;SDS011;5187;52.378;9.018;2022-08-02T15:06:30;3.47;;;2.30;;
10283;SDS011;5187;52.378;9.018;2022-08-02T15:08:59;3.15;;;2.20;;
10283;SDS011;5187;52.378;9.018;2022-08-02T15:11:27;2.60;;;2.40;;
10283;SDS011;5187;52.378;9.018;2022-08-02T15:14:13;2.38;;;2.17;;
10283;SDS011;5187;52.378;9.018;2022-08-02T15:16:57;2.63;;;2.40;;
10283;SDS011;5187;52.378;9.018;2022-08-02T15:22:27;4.53;;;2.33;;
10283;SDS011;5187;52.378;9.018;2022-08-02T15:24:57;4.00;;;2.50;;
10283;SDS011;5187;52.378;9.018;2022-08-02T15:27:25;3.33;;;2.42;;
10283;SDS011;5187;52.378;9.018;2022-08-02T15:29:54;4.43;;;2.30;;
10283;SDS011;5187;52.378;9.018;2022-08-02T15:32:27;2.78;;;2.45;;
10283;SDS011;5187;52.378;9.018;2022-08-02T15:34:55;3.08;;;2.10;;
10283;SDS011;5187;52.378;9.018;2022-08-02T15:37:24;2.10;;;1.90;;
10283;SDS011;5187;52.378;9.018;2022-08-02T15:39:56;2.55;;;2.08;;
10283;SDS011;5187;52.378;9.018;2022-08-02T15:42:25;3.42;;;2.10;;
10283;SDS011;5187;52.378;9.018;2022-08-02T15:44:56;2.88;;;2.20;;
10283;SDS011;5187;52.378;9.018;2022-08-02T15:47:25;2.72;;;1.90;;
10283;SDS011;5187;52.378;9.018;2022-08-02T15:49:55;2.30;;;1.95;;
10283;SDS011;5187;52.378;9.018;2022-08-02T15:52:24;2.05;;;1.95;;
10283;SDS011;5187;52.378;9.018;2022-08-02T15:54:58;2.25;;;2.00;;
10283;SDS011;5187;52.378;9.018;2022-08-02T15:57:32;3.92;;;2.25;;
10283;SDS011;5187;52.378;9.018;2022-08-02T16:00:01;3.25;;;1.98;;
10283;SDS011;5187;52.378;9.018;2022-08-02T16:02:30;2.38;;;2.17;;
10283;SDS011;5187;52.378;9.018;2022-08-02T16:05:00;2.10;;;1.90;;